createdAt,value
2023-05-10T00:00:46.112Z,7.40
2023-05-10T00:01:48.425Z,7.30
2023-05-10T00:02:50.958Z,7.30
2023-05-10T00:03:53.510Z,9.10
2023-05-10T00:04:55.776Z,7.90
2023-05-10T00:05:58.513Z,6.30
2023-05-10T00:07:00.739Z,6.70
2023-05-10T00:08:02.952Z,7.80
2023-05-10T00:09:05.163Z,7.10
2023-05-10T00:10:08.432Z,7.80
2023-05-10T00:11:10.621Z,8.10
2023-05-10T00:12:12.897Z,10.00
2023-05-10T00:13:15.145Z,7.60
2023-05-10T00:14:17.630Z,8.30
2023-05-10T00:15:20.645Z,6.70
2023-05-10T00:16:23.168Z,7.36
2023-05-10T00:17:25.575Z,8.40
2023-05-10T00:18:28.836Z,8.70
2023-05-10T00:19:31.158Z,11.90
2023-05-10T00:20:33.408Z,9.40
2023-05-10T00:21:36.093Z,8.10
2023-05-10T00:22:38.397Z,8.60
2023-05-10T00:23:41.270Z,8.00
2023-05-10T00:24:44.047Z,6.40
2023-05-10T00:25:47.477Z,10.18
2023-05-10T00:26:49.730Z,9.00
2023-05-10T00:27:51.949Z,8.10
2023-05-10T00:28:54.116Z,11.10
2023-05-10T00:29:56.425Z,8.20
2023-05-10T00:30:58.894Z,6.90
2023-05-10T00:32:01.200Z,7.90
2023-05-10T00:33:03.628Z,6.70
2023-05-10T00:34:05.984Z,8.60
2023-05-10T00:35:08.807Z,9.40
2023-05-10T00:36:11.934Z,8.90
2023-05-10T00:37:14.736Z,9.30
2023-05-10T00:38:16.971Z,9.20
2023-05-10T00:39:19.309Z,8.10
2023-05-10T00:40:21.496Z,8.60
2023-05-10T00:41:26.098Z,6.20
2023-05-10T00:42:28.285Z,8.20
2023-05-10T00:43:30.814Z,5.70
2023-05-10T00:44:33.581Z,6.00
2023-05-10T00:45:37.793Z,6.60
2023-05-10T00:46:40.196Z,5.70
2023-05-10T00:47:42.736Z,6.00
2023-05-10T00:48:45.461Z,5.20
2023-05-10T00:49:47.868Z,6.60
2023-05-10T00:50:50.173Z,7.90
2023-05-10T00:51:53.098Z,5.00
2023-05-10T00:52:56.385Z,6.09
2023-05-10T00:53:59.390Z,5.40
2023-05-10T00:55:02.416Z,6.45
2023-05-10T00:56:04.997Z,5.60
2023-05-10T00:57:07.242Z,5.20
2023-05-10T00:58:09.523Z,4.50
2023-05-10T00:59:11.923Z,4.70
2023-05-10T01:00:15.027Z,5.10
2023-05-10T01:01:18.691Z,4.90
2023-05-10T01:02:21.240Z,5.90
2023-05-10T01:03:23.820Z,5.30
2023-05-10T01:04:26.231Z,5.80
2023-05-10T01:05:28.560Z,4.50
2023-05-10T01:06:31.566Z,5.60
2023-05-10T01:07:33.750Z,5.09
2023-05-10T01:08:36.877Z,5.50
2023-05-10T01:09:39.388Z,7.40
2023-05-10T01:10:43.484Z,4.80
2023-05-10T01:11:46.443Z,5.10
2023-05-10T01:12:49.225Z,7.10
2023-05-10T01:13:55.147Z,6.80
2023-05-10T01:14:58.211Z,6.70
2023-05-10T01:16:01.151Z,7.00
2023-05-10T01:17:05.411Z,6.45
2023-05-10T01:18:09.557Z,5.80
2023-05-10T01:19:21.825Z,5.20
2023-05-10T01:20:25.686Z,6.80
2023-05-10T01:21:35.049Z,7.00
2023-05-10T01:22:56.079Z,6.70
2023-05-10T01:24:18.949Z,7.55
2023-05-10T01:25:30.854Z,7.40
2023-05-10T01:27:11.850Z,7.10
2023-05-10T01:28:47.206Z,5.90
2023-05-10T01:31:53.792Z,5.80
2023-05-10T01:33:20.099Z,7.00
2023-05-10T01:34:25.989Z,5.20
2023-05-10T01:35:34.847Z,5.50
2023-05-10T01:38:31.653Z,10.10
2023-05-10T01:39:52.629Z,4.20
2023-05-10T01:42:33.366Z,6.00
2023-05-10T01:43:45.284Z,6.70
2023-05-10T01:45:17.736Z,5.60
2023-05-10T01:47:44.795Z,7.20
2023-05-10T01:48:51.508Z,5.90
2023-05-10T01:49:55.886Z,6.80
2023-05-10T01:50:59.263Z,7.40
2023-05-10T01:52:14.378Z,6.30
2023-05-10T01:53:20.207Z,7.10
2023-05-10T01:54:24.504Z,5.80
2023-05-10T01:55:32.847Z,6.70
2023-05-10T01:56:38.210Z,7.00
2023-05-10T01:57:44.167Z,5.80
2023-05-10T01:58:49.788Z,5.90
2023-05-10T01:59:53.601Z,7.60
2023-05-10T02:00:57.994Z,5.20
2023-05-10T02:02:02.733Z,5.30
2023-05-10T02:03:08.837Z,7.00
2023-05-10T02:04:16.390Z,7.90
2023-05-10T02:05:20.698Z,7.10
2023-05-10T02:06:24.477Z,6.20
2023-05-10T02:07:29.405Z,6.00
2023-05-10T02:08:33.518Z,6.20
2023-05-10T02:09:38.590Z,6.60
2023-05-10T02:10:43.078Z,9.40
2023-05-10T02:11:47.688Z,8.10
2023-05-10T02:12:53.168Z,8.10
2023-05-10T02:13:56.741Z,6.50
2023-05-10T02:15:04.594Z,4.80
2023-05-10T02:16:08.015Z,6.00
2023-05-10T02:17:12.042Z,5.50
2023-05-10T02:18:16.641Z,6.60
2023-05-10T02:19:20.411Z,6.90
2023-05-10T02:20:25.201Z,6.00
2023-05-10T02:21:29.937Z,7.10
2023-05-10T02:22:33.374Z,6.60
2023-05-10T02:23:38.151Z,7.80
2023-05-10T02:24:41.997Z,6.30
2023-05-10T02:25:45.307Z,6.30
2023-05-10T02:26:50.171Z,6.36
2023-05-10T02:27:55.140Z,6.30
2023-05-10T02:28:58.569Z,7.80
2023-05-10T02:30:02.116Z,4.50
2023-05-10T02:31:06.461Z,6.30
2023-05-10T02:32:10.452Z,5.70
2023-05-10T02:33:15.257Z,5.10
2023-05-10T02:34:18.061Z,5.80
2023-05-10T02:35:23.052Z,6.70
2023-05-10T02:36:26.750Z,5.50
2023-05-10T02:37:30.169Z,6.00
2023-05-10T02:38:35.141Z,5.40
2023-05-10T02:39:38.692Z,6.60
2023-05-10T02:40:43.027Z,4.90
2023-05-10T02:41:49.119Z,4.70
2023-05-10T02:42:55.027Z,6.30
2023-05-10T02:44:01.128Z,5.60
2023-05-10T02:46:16.455Z,7.00
2023-05-10T02:47:19.487Z,5.30
2023-05-10T02:48:21.877Z,6.27
2023-05-10T02:49:24.320Z,5.80
2023-05-10T02:50:32.619Z,4.70
2023-05-10T02:51:38.304Z,4.40
2023-05-10T02:52:46.907Z,5.90
2023-05-10T02:53:52.030Z,6.60
2023-05-10T02:54:58.549Z,6.90
2023-05-10T02:56:04.319Z,9.20
2023-05-10T02:57:09.745Z,6.70
2023-05-10T02:58:13.509Z,6.70
2023-05-10T02:59:15.903Z,6.50
2023-05-10T03:00:18.534Z,5.90
2023-05-10T03:01:21.844Z,4.70
2023-05-10T03:02:25.486Z,5.55
2023-05-10T03:03:27.994Z,5.60
2023-05-10T03:04:30.761Z,4.60
2023-05-10T03:05:33.672Z,5.90
2023-05-10T03:06:38.017Z,5.50
2023-05-10T03:07:41.057Z,6.20
2023-05-10T03:08:44.888Z,5.90
2023-05-10T03:09:49.656Z,6.50
2023-05-10T03:11:07.175Z,5.70
2023-05-10T03:12:16.521Z,5.60
2023-05-10T03:13:34.327Z,4.80
2023-05-10T03:14:59.771Z,5.50
2023-05-10T03:16:25.148Z,6.00
2023-05-10T03:17:49.704Z,4.90
2023-05-10T03:19:01.699Z,5.90
2023-05-10T03:20:07.350Z,6.00
2023-05-10T03:21:13.290Z,5.40
2023-05-10T03:22:20.398Z,6.60
2023-05-10T03:23:32.607Z,6.00
2023-05-10T03:24:37.165Z,5.20
2023-05-10T03:25:41.568Z,5.70
2023-05-10T03:26:45.648Z,6.10
2023-05-10T03:27:51.678Z,6.40
2023-05-10T03:28:55.751Z,5.20
2023-05-10T03:29:58.553Z,4.90
2023-05-10T03:31:02.830Z,5.55
2023-05-10T03:32:05.956Z,5.80
2023-05-10T03:33:08.906Z,6.40
2023-05-10T03:34:13.549Z,5.80
2023-05-10T03:35:15.887Z,5.90
2023-05-10T03:36:19.780Z,6.50
2023-05-10T03:37:22.328Z,6.70
2023-05-10T03:38:24.732Z,7.10
2023-05-10T03:39:27.055Z,7.50
2023-05-10T03:40:31.207Z,6.00
2023-05-10T03:41:34.048Z,4.50
2023-05-10T03:42:36.440Z,5.82
2023-05-10T03:43:39.234Z,5.20
2023-05-10T03:44:41.406Z,6.70
2023-05-10T03:45:44.772Z,6.20
2023-05-10T03:46:46.944Z,6.10
2023-05-10T03:47:49.789Z,6.50
2023-05-10T03:48:52.122Z,6.10
2023-05-10T03:49:54.449Z,6.30
2023-05-10T03:50:56.834Z,5.40
2023-05-10T03:51:59.352Z,7.20
2023-05-10T03:53:02.503Z,5.70
2023-05-10T03:54:04.866Z,6.90
2023-05-10T03:55:08.135Z,7.80
2023-05-10T03:56:11.403Z,5.80
2023-05-10T03:57:13.851Z,5.82
2023-05-10T03:58:16.193Z,6.60
2023-05-10T03:59:18.940Z,5.40
2023-05-10T04:00:21.174Z,5.80
2023-05-10T04:01:25.927Z,6.20
2023-05-10T04:02:28.310Z,6.09
2023-05-10T04:03:31.357Z,4.50
2023-05-10T04:04:33.718Z,6.00
2023-05-10T04:05:37.556Z,4.50
2023-05-10T04:06:39.955Z,6.70
2023-05-10T04:07:42.091Z,5.00
2023-05-10T04:08:44.422Z,6.10
2023-05-10T04:09:47.395Z,5.00
2023-05-10T04:10:49.767Z,5.36
2023-05-10T04:11:52.004Z,5.80
2023-05-10T04:12:54.419Z,7.30
2023-05-10T04:13:56.880Z,4.60
2023-05-10T04:14:59.083Z,5.20
2023-05-10T04:16:01.712Z,7.00
2023-05-10T04:17:03.843Z,6.30
2023-05-10T04:18:07.971Z,4.50
2023-05-10T04:19:10.130Z,5.30
2023-05-10T04:20:13.398Z,5.50
2023-05-10T04:21:16.189Z,6.09
2023-05-10T04:22:19.773Z,4.73
2023-05-10T04:23:23.081Z,6.70
2023-05-10T04:24:26.184Z,6.20
2023-05-10T04:25:28.895Z,5.10
2023-05-10T04:26:31.197Z,5.80
2023-05-10T04:27:33.537Z,5.70
2023-05-10T04:28:35.822Z,5.20
2023-05-10T04:29:38.169Z,6.20
2023-05-10T04:30:40.525Z,5.60
2023-05-10T04:31:42.734Z,6.10
2023-05-10T04:32:45.060Z,6.50
2023-05-10T04:33:48.484Z,5.40
2023-05-10T04:34:50.791Z,4.80
2023-05-10T04:35:52.912Z,4.70
2023-05-10T04:36:55.558Z,5.22
2023-05-10T04:37:57.769Z,4.50
2023-05-10T04:39:00.377Z,4.90
2023-05-10T04:40:03.514Z,6.90
2023-05-10T04:41:07.804Z,4.80
2023-05-10T04:42:10.096Z,6.40
2023-05-10T04:43:12.934Z,4.50
2023-05-10T04:44:15.243Z,5.30
2023-05-10T04:45:17.518Z,3.10
2023-05-10T04:46:19.830Z,4.40
2023-05-10T04:47:22.248Z,5.40
2023-05-10T04:48:24.423Z,4.90
2023-05-10T04:49:26.771Z,5.40
2023-05-10T04:50:29.331Z,4.70
2023-05-10T04:51:31.599Z,4.20
2023-05-10T04:52:33.833Z,5.90
2023-05-10T04:53:36.037Z,5.20
2023-05-10T04:54:38.129Z,7.00
2023-05-10T04:55:40.160Z,4.11
2023-05-10T04:56:42.345Z,6.30
2023-05-10T04:57:44.670Z,6.70
2023-05-10T04:58:47.066Z,4.40
2023-05-10T04:59:50.684Z,3.90
2023-05-10T05:00:53.695Z,5.30
2023-05-10T05:01:56.868Z,6.10
2023-05-10T05:02:59.253Z,5.90
2023-05-10T05:04:01.816Z,5.00
2023-05-10T05:05:04.411Z,6.50
2023-05-10T05:06:07.467Z,5.20
2023-05-10T05:07:09.569Z,4.30
2023-05-10T05:08:12.254Z,5.20
2023-05-10T05:09:15.011Z,4.80
2023-05-10T05:10:17.532Z,4.80
2023-05-10T05:11:20.089Z,5.36
2023-05-10T05:12:22.428Z,6.70
2023-05-10T05:13:25.900Z,5.90
2023-05-10T05:14:28.688Z,7.00
2023-05-10T05:15:31.548Z,5.90
2023-05-10T05:16:34.010Z,3.27
2023-05-10T05:17:36.982Z,4.70
2023-05-10T05:18:39.579Z,4.00
2023-05-10T05:19:42.362Z,5.60
2023-05-10T05:20:44.606Z,6.40
2023-05-10T05:21:47.120Z,5.10
2023-05-10T05:22:49.604Z,6.70
2023-05-10T05:23:51.869Z,5.10
2023-05-10T05:24:58.218Z,5.30
2023-05-10T05:26:00.787Z,5.90
2023-05-10T05:27:03.711Z,4.80
2023-05-10T05:28:05.902Z,7.20
2023-05-10T05:29:08.592Z,6.30
2023-05-10T05:30:11.636Z,6.90
2023-05-10T05:31:15.863Z,5.80
2023-05-10T05:32:18.040Z,5.20
2023-05-10T05:33:20.232Z,5.90
2023-05-10T05:34:22.460Z,5.10
2023-05-10T05:35:25.080Z,5.50
2023-05-10T05:36:27.784Z,5.20
2023-05-10T05:37:29.963Z,5.70
2023-05-10T05:38:32.685Z,5.00
2023-05-10T05:39:37.003Z,4.00
2023-05-10T05:40:39.397Z,5.70
2023-05-10T05:41:41.565Z,4.80
2023-05-10T05:42:43.911Z,6.50
2023-05-10T05:43:45.860Z,5.10
2023-05-10T05:44:48.056Z,5.50
2023-05-10T05:45:50.272Z,5.00
2023-05-10T05:46:52.543Z,4.90
2023-05-10T05:47:55.266Z,5.50
2023-05-10T05:49:00.712Z,4.80
2023-05-10T05:50:07.793Z,5.60
2023-05-10T05:51:10.586Z,5.30
2023-05-10T05:52:17.038Z,5.30
2023-05-10T05:53:25.303Z,4.70
2023-05-10T05:54:30.509Z,5.10
2023-05-10T05:55:38.591Z,4.80
2023-05-10T05:56:44.399Z,7.90
2023-05-10T05:57:50.726Z,4.70
2023-05-10T05:58:54.959Z,6.50
2023-05-10T05:59:59.653Z,5.90
2023-05-10T06:01:04.439Z,7.10
2023-05-10T06:02:07.765Z,5.70
2023-05-10T06:03:13.186Z,5.30
2023-05-10T06:04:17.918Z,6.60
2023-05-10T06:05:23.750Z,7.20
2023-05-10T06:06:31.352Z,5.30
2023-05-10T06:07:37.245Z,4.80
2023-05-10T06:08:44.358Z,5.10
2023-05-10T06:09:47.998Z,6.20
2023-05-10T06:10:52.336Z,7.10
2023-05-10T06:11:55.081Z,7.50
2023-05-10T06:12:59.904Z,7.50
2023-05-10T06:14:04.693Z,5.80
2023-05-10T06:15:09.288Z,6.30
2023-05-10T06:16:19.406Z,7.80
2023-05-10T06:17:25.924Z,6.60
2023-05-10T06:19:57.817Z,5.70
2023-05-10T06:21:07.917Z,7.30
2023-05-10T06:22:14.673Z,6.60
2023-05-10T06:23:20.902Z,6.20
2023-05-10T06:24:29.501Z,4.80
2023-05-10T06:25:35.083Z,7.70
2023-05-10T06:26:38.488Z,7.40
2023-05-10T06:27:41.217Z,7.30
2023-05-10T06:28:44.026Z,7.90
2023-05-10T06:29:46.779Z,6.55
2023-05-10T06:30:51.533Z,5.27
2023-05-10T06:31:58.207Z,7.20
2023-05-10T06:33:03.366Z,7.60
2023-05-10T06:34:17.500Z,6.30
2023-05-10T06:35:25.216Z,5.80
2023-05-10T06:36:30.852Z,6.80
2023-05-10T06:37:34.506Z,6.70
2023-05-10T06:38:37.127Z,7.50
2023-05-10T06:39:44.429Z,5.40
2023-05-10T06:40:47.037Z,5.20
2023-05-10T06:41:56.303Z,5.20
2023-05-10T06:42:59.957Z,6.40
2023-05-10T06:44:03.587Z,8.60
2023-05-10T06:45:12.186Z,5.00
2023-05-10T06:46:14.652Z,6.00
2023-05-10T06:47:19.823Z,7.00
2023-05-10T06:48:24.552Z,9.00
2023-05-10T06:49:29.955Z,7.40
2023-05-10T06:50:35.773Z,5.30
2023-05-10T06:51:40.258Z,5.90
2023-05-10T06:52:47.007Z,5.80
2023-05-10T06:53:53.380Z,5.60
2023-05-10T06:54:57.440Z,3.40
2023-05-10T06:56:05.781Z,6.60
2023-05-10T06:57:23.352Z,6.90
2023-05-10T06:58:18.421Z,6.10
2023-05-10T06:59:25.177Z,3.80
2023-05-10T07:00:30.217Z,4.90
2023-05-10T07:01:38.398Z,3.90
2023-05-10T07:02:42.564Z,5.60
2023-05-10T07:03:49.072Z,5.30
2023-05-10T07:04:53.732Z,5.20
2023-05-10T07:06:06.307Z,6.09
2023-05-10T07:07:14.131Z,6.40
2023-05-10T07:08:17.602Z,7.00
2023-05-10T07:09:22.224Z,5.50
2023-05-10T07:10:26.705Z,6.80
2023-05-10T07:11:30.430Z,6.60
2023-05-10T07:12:33.749Z,7.10
2023-05-10T07:13:40.626Z,6.70
2023-05-10T07:14:45.422Z,7.40
2023-05-10T07:15:49.210Z,9.40
2023-05-10T07:16:58.279Z,5.40
2023-05-10T07:18:07.876Z,7.10
2023-05-10T07:19:12.666Z,6.70
2023-05-10T07:20:19.430Z,7.60
2023-05-10T07:21:25.937Z,4.90
2023-05-10T07:22:33.840Z,5.40
2023-05-10T07:23:36.249Z,5.70
2023-05-10T07:24:40.361Z,7.20
2023-05-10T07:27:00.155Z,7.10
2023-05-10T07:28:02.511Z,6.90
2023-05-10T07:29:04.679Z,6.80
2023-05-10T07:30:08.466Z,6.10
2023-05-10T07:31:10.702Z,5.30
2023-05-10T07:32:13.972Z,6.40
2023-05-10T07:33:16.761Z,7.70
2023-05-10T07:34:19.916Z,5.90
2023-05-10T07:35:22.232Z,5.10
2023-05-10T07:36:24.434Z,4.50
2023-05-10T07:37:26.977Z,5.30
2023-05-10T07:38:29.330Z,5.40
2023-05-10T07:39:32.496Z,5.80
2023-05-10T07:40:34.864Z,5.00
2023-05-10T07:41:36.820Z,6.80
2023-05-10T07:42:39.246Z,6.22
2023-05-10T07:43:41.533Z,4.00
2023-05-10T07:44:43.603Z,4.80
2023-05-10T07:45:46.366Z,5.80
2023-05-10T07:46:48.580Z,4.50
2023-05-10T07:47:51.900Z,4.30
2023-05-10T07:48:54.125Z,4.50
2023-05-10T07:49:56.388Z,5.60
2023-05-10T07:50:59.034Z,5.60
2023-05-10T07:52:01.544Z,2.90
2023-05-10T07:53:03.740Z,5.50
2023-05-10T07:54:06.236Z,4.50
2023-05-10T07:55:09.360Z,4.40
2023-05-10T07:56:29.000Z,4.90
2023-05-10T07:57:31.189Z,4.30
2023-05-10T07:58:33.314Z,3.70
2023-05-10T07:59:35.396Z,4.30
2023-05-10T08:00:37.924Z,3.40
2023-05-10T08:01:40.508Z,4.20
2023-05-10T08:02:43.240Z,3.80
2023-05-10T08:03:45.674Z,4.45
2023-05-10T08:04:48.624Z,3.50
2023-05-10T08:05:51.392Z,4.36
2023-05-10T08:06:53.589Z,5.50
2023-05-10T08:07:55.750Z,3.70
2023-05-10T08:08:58.033Z,3.40
2023-05-10T08:09:59.995Z,3.00
2023-05-10T08:11:02.768Z,3.00
2023-05-10T08:12:05.783Z,5.27
2023-05-10T08:13:08.149Z,4.27
2023-05-10T08:14:10.827Z,2.80
2023-05-10T08:15:13.462Z,3.20
2023-05-10T08:16:16.278Z,2.50
2023-05-10T08:17:19.935Z,3.36
2023-05-10T08:18:23.029Z,3.60
2023-05-10T08:19:25.798Z,4.80
2023-05-10T08:20:28.699Z,3.30
2023-05-10T08:21:31.498Z,3.00
2023-05-10T08:22:33.581Z,3.90
2023-05-10T08:23:35.656Z,2.00
2023-05-10T08:24:37.735Z,3.30
2023-05-10T08:25:40.040Z,3.30
2023-05-10T08:26:42.721Z,2.00
2023-05-10T08:27:45.512Z,3.30
2023-05-10T08:28:47.591Z,2.30
2023-05-10T08:29:50.755Z,2.50
2023-05-10T08:30:53.359Z,2.60
2023-05-10T08:31:55.687Z,2.20
2023-05-10T08:32:57.986Z,2.80
2023-05-10T08:34:00.393Z,3.60
2023-05-10T08:35:02.687Z,2.00
2023-05-10T08:36:05.097Z,2.90
2023-05-10T08:37:07.493Z,3.00
2023-05-10T08:38:09.590Z,2.70
2023-05-10T08:39:23.053Z,3.40
2023-05-10T08:40:16.064Z,2.00
2023-05-10T08:41:21.220Z,1.80
2023-05-10T08:42:26.859Z,3.40
2023-05-10T08:43:30.160Z,2.80
2023-05-10T08:44:36.272Z,2.40
2023-05-10T08:45:43.422Z,3.90
2023-05-10T08:46:47.313Z,2.10
2023-05-10T08:47:50.742Z,2.70
2023-05-10T08:48:54.411Z,2.30
2023-05-10T08:49:59.230Z,4.30
2023-05-10T08:51:04.088Z,2.70
2023-05-10T08:52:07.481Z,3.00
2023-05-10T08:53:15.445Z,4.40
2023-05-10T08:54:18.649Z,2.70
2023-05-10T08:55:20.945Z,3.20
2023-05-10T08:56:23.600Z,2.20
2023-05-10T08:57:26.513Z,2.70
2023-05-10T08:58:29.270Z,3.27
2023-05-10T08:59:31.954Z,4.18
2023-05-10T09:00:35.026Z,3.20
2023-05-10T09:01:37.960Z,3.10
2023-05-10T09:02:41.639Z,2.73
2023-05-10T09:03:46.607Z,3.80
2023-05-10T09:04:49.011Z,4.40
2023-05-10T09:05:51.265Z,3.80
2023-05-10T09:06:53.739Z,3.30
2023-05-10T09:07:56.370Z,3.20
2023-05-10T09:08:59.384Z,3.80
2023-05-10T09:10:01.956Z,2.80
2023-05-10T09:11:04.211Z,4.00
2023-05-10T09:12:09.713Z,3.80
2023-05-10T09:13:12.193Z,2.90
2023-05-10T09:14:16.219Z,3.60
2023-05-10T09:15:19.174Z,2.90
2023-05-10T09:16:22.533Z,5.70
2023-05-10T09:17:26.689Z,5.90
2023-05-10T09:18:33.193Z,7.90
2023-05-10T09:19:35.753Z,5.00
2023-05-10T09:20:38.474Z,4.90
2023-05-10T09:21:41.462Z,4.09
2023-05-10T09:22:44.300Z,3.36
2023-05-10T09:23:48.933Z,4.82
2023-05-10T09:26:22.208Z,3.60
2023-05-10T09:27:29.960Z,4.00
2023-05-10T09:28:34.116Z,4.60
2023-05-10T09:30:54.621Z,5.00
2023-05-10T09:31:57.581Z,5.60
2023-05-10T09:33:01.173Z,4.10
2023-05-10T09:34:03.597Z,4.70
2023-05-10T09:35:15.152Z,3.70
2023-05-10T09:36:17.857Z,4.90
2023-05-10T09:37:24.137Z,7.10
2023-05-10T09:38:26.276Z,4.10
2023-05-10T09:41:04.090Z,4.30
2023-05-10T09:43:17.444Z,4.60
2023-05-10T09:44:23.268Z,5.10
2023-05-10T09:45:30.515Z,3.80
2023-05-10T09:46:37.524Z,4.00
2023-05-10T09:47:40.102Z,3.30
2023-05-10T09:48:47.103Z,4.40
2023-05-10T09:49:53.870Z,2.20
2023-05-10T09:50:59.014Z,5.60
2023-05-10T09:52:07.366Z,4.00
2023-05-10T09:53:09.598Z,4.90
2023-05-10T09:54:15.121Z,3.00
2023-05-10T09:55:19.409Z,5.00
2023-05-10T09:56:34.632Z,5.30
2023-05-10T09:57:37.055Z,3.40
2023-05-10T09:58:40.657Z,4.20
2023-05-10T09:59:46.478Z,4.20
2023-05-10T10:00:49.488Z,4.60
2023-05-10T10:01:51.817Z,4.50
2023-05-10T10:02:58.688Z,3.70
2023-05-10T10:04:03.582Z,3.70
2023-05-10T10:05:07.535Z,3.10
2023-05-10T10:06:18.765Z,3.70
2023-05-10T10:07:15.117Z,3.10
2023-05-10T10:08:19.127Z,5.09
2023-05-10T10:09:21.384Z,5.50
2023-05-10T10:10:27.788Z,4.60
2023-05-10T10:11:30.199Z,5.00
2023-05-10T10:12:32.783Z,6.50
2023-05-10T10:13:35.166Z,9.20
2023-05-10T10:14:37.687Z,10.00
2023-05-10T10:15:40.834Z,8.90
2023-05-10T10:16:55.469Z,6.70
2023-05-10T10:17:49.287Z,5.10
2023-05-10T10:18:51.595Z,4.50
2023-05-10T10:19:55.966Z,6.00
2023-05-10T10:21:00.168Z,6.50
2023-05-10T10:22:02.575Z,5.40
2023-05-10T10:23:05.411Z,7.00
2023-05-10T10:24:07.607Z,5.30
2023-05-10T10:25:12.832Z,5.20
2023-05-10T10:26:17.495Z,1.20
2023-05-10T10:27:26.108Z,4.00
2023-05-10T10:31:26.268Z,4.20
2023-05-10T10:32:32.266Z,4.30
2023-05-10T10:33:53.708Z,2.20
2023-05-10T10:34:56.820Z,3.40
2023-05-10T10:36:01.975Z,3.70
2023-05-10T10:37:07.513Z,2.70
2023-05-10T10:38:09.869Z,3.10
2023-05-10T10:39:13.478Z,2.20
2023-05-10T10:40:33.702Z,2.00
2023-05-10T10:41:41.623Z,2.70
2023-05-10T10:42:47.942Z,3.50
2023-05-10T10:43:52.069Z,3.00
2023-05-10T10:44:57.875Z,2.00
2023-05-10T10:46:17.453Z,3.30
2023-05-10T10:47:22.848Z,2.80
2023-05-10T10:48:25.545Z,3.60
2023-05-10T10:49:27.871Z,1.90
2023-05-10T10:50:30.081Z,3.00
2023-05-10T10:51:32.300Z,3.00
2023-05-10T10:53:48.829Z,4.60
2023-05-10T10:55:00.536Z,3.90
2023-05-10T10:57:25.227Z,2.80
2023-05-10T10:58:32.248Z,3.00
2023-05-10T10:59:35.728Z,4.10
2023-05-10T11:00:39.406Z,4.20
2023-05-10T11:01:42.331Z,3.50
2023-05-10T11:02:45.571Z,3.45
2023-05-10T11:04:00.706Z,4.20
2023-05-10T11:05:26.522Z,2.70
2023-05-10T11:06:34.264Z,4.00
2023-05-10T11:07:36.608Z,3.50
2023-05-10T11:08:42.862Z,2.80
2023-05-10T11:09:48.437Z,2.10
2023-05-10T11:11:04.588Z,3.80
2023-05-10T11:12:09.849Z,2.70
2023-05-10T11:13:13.270Z,5.40
2023-05-10T11:14:20.070Z,3.50
2023-05-10T11:15:36.852Z,3.60
2023-05-10T11:16:44.151Z,4.00
2023-05-10T11:17:49.353Z,4.00
2023-05-10T11:19:04.229Z,4.80
2023-05-10T11:20:16.018Z,3.20
2023-05-10T11:21:24.038Z,4.90
2023-05-10T11:22:28.170Z,6.70
2023-05-10T11:24:01.854Z,5.50
2023-05-10T11:25:07.241Z,4.70
2023-05-10T11:26:12.458Z,3.80
2023-05-10T11:27:16.556Z,3.80
2023-05-10T11:28:19.536Z,4.30
2023-05-10T11:29:24.625Z,3.30
2023-05-10T11:30:29.425Z,4.40
2023-05-10T11:31:36.150Z,4.20
2023-05-10T11:32:41.190Z,5.90
2023-05-10T11:33:47.042Z,4.00
2023-05-10T11:34:49.538Z,5.30
2023-05-10T11:35:52.332Z,5.50
2023-05-10T11:36:56.492Z,5.30
2023-05-10T11:37:58.970Z,3.60
2023-05-10T11:39:01.492Z,3.40
2023-05-10T11:40:04.041Z,4.40
2023-05-10T11:41:08.133Z,4.70
2023-05-10T11:42:12.435Z,2.50
2023-05-10T11:43:14.767Z,3.00
2023-05-10T11:44:17.605Z,3.00
2023-05-10T11:45:20.112Z,3.45
2023-05-10T11:46:24.869Z,2.80
2023-05-10T11:47:27.164Z,3.00
2023-05-10T11:48:30.794Z,2.80
2023-05-10T11:49:33.207Z,4.00
2023-05-10T11:50:36.276Z,2.80
2023-05-10T11:51:39.272Z,2.10
2023-05-10T11:52:42.819Z,3.10
2023-05-10T11:53:45.189Z,3.00
2023-05-10T11:56:06.549Z,2.60
2023-05-10T11:57:09.366Z,2.60
2023-05-10T11:58:11.556Z,4.10
2023-05-10T11:59:15.197Z,2.40
2023-05-10T12:00:17.796Z,0.60
2023-05-10T12:01:21.932Z,1.60
2023-05-10T12:02:24.747Z,2.40
2023-05-10T12:03:29.021Z,3.30
2023-05-10T12:04:31.934Z,4.50
2023-05-10T12:05:34.912Z,3.80
2023-05-10T12:06:41.688Z,0.50
2023-05-10T12:07:44.147Z,3.00
2023-05-10T12:08:48.457Z,4.90
2023-05-10T12:10:09.113Z,1.50
2023-05-10T12:11:12.954Z,2.20
2023-05-10T12:12:18.060Z,2.00
2023-05-10T12:13:22.191Z,2.40
2023-05-10T12:14:24.518Z,2.50
2023-05-10T12:15:28.289Z,4.20
2023-05-10T12:16:30.763Z,2.20
2023-05-10T12:17:33.481Z,2.50
2023-05-10T12:18:39.667Z,2.20
2023-05-10T12:19:42.001Z,2.10
2023-05-10T12:20:44.503Z,3.00
2023-05-10T12:21:47.724Z,3.10
2023-05-10T12:24:08.638Z,2.70
2023-05-10T12:25:11.193Z,2.18
2023-05-10T12:26:14.440Z,4.20
2023-05-10T12:27:17.210Z,3.00
2023-05-10T12:28:20.312Z,3.10
2023-05-10T12:29:22.550Z,2.00
2023-05-10T12:30:27.206Z,2.60
2023-05-10T12:31:29.547Z,2.00
2023-05-10T12:33:50.735Z,2.50
2023-05-10T12:34:53.020Z,1.90
2023-05-10T12:35:55.738Z,3.20
2023-05-10T12:36:58.023Z,2.20
2023-05-10T12:38:00.350Z,2.00
2023-05-10T12:39:04.255Z,3.00
2023-05-10T12:40:09.994Z,4.50
2023-05-10T12:42:30.532Z,2.00
2023-05-10T12:43:33.994Z,3.40
2023-05-10T12:44:36.252Z,2.60
2023-05-10T12:45:38.492Z,3.90
2023-05-10T12:46:41.088Z,2.40
2023-05-10T12:47:44.174Z,1.90
2023-05-10T12:48:47.115Z,3.10
2023-05-10T12:49:49.649Z,2.10
2023-05-10T12:50:52.304Z,2.50
2023-05-10T12:51:54.505Z,3.10
2023-05-10T12:52:57.103Z,2.50
2023-05-10T12:53:59.361Z,3.50
2023-05-10T12:55:01.861Z,2.80
2023-05-10T12:56:04.504Z,3.10
2023-05-10T12:57:06.790Z,2.70
2023-05-10T12:58:09.072Z,2.00
2023-05-10T12:59:11.302Z,2.40
2023-05-10T13:00:15.623Z,2.90
2023-05-10T13:01:18.689Z,1.90
2023-05-10T13:02:21.051Z,2.64
2023-05-10T13:03:23.334Z,2.70
2023-05-10T13:04:26.063Z,2.70
2023-05-10T13:05:28.828Z,2.36
2023-05-10T13:06:31.543Z,2.90
2023-05-10T13:07:33.712Z,2.40
2023-05-10T13:08:35.901Z,2.50
2023-05-10T13:09:38.705Z,2.20
2023-05-10T13:10:41.451Z,1.40
2023-05-10T13:11:43.662Z,3.10
2023-05-10T13:12:46.012Z,3.00
2023-05-10T13:13:48.290Z,2.00
2023-05-10T13:14:51.103Z,2.50
2023-05-10T13:15:53.424Z,2.30
2023-05-10T13:16:55.851Z,1.20
2023-05-10T13:17:58.749Z,1.80
2023-05-10T13:19:01.217Z,2.82
2023-05-10T13:20:04.296Z,2.00
2023-05-10T13:21:07.156Z,2.90
2023-05-10T13:22:09.439Z,1.30
2023-05-10T13:23:11.666Z,1.80
2023-05-10T13:24:13.828Z,2.40
2023-05-10T13:25:15.837Z,2.30
2023-05-10T13:26:19.318Z,2.60
2023-05-10T13:27:22.010Z,2.30
2023-05-10T13:28:24.360Z,2.60
2023-05-10T13:29:26.557Z,1.80
2023-05-10T13:30:29.285Z,1.80
2023-05-10T13:31:31.832Z,2.18
2023-05-10T13:32:34.562Z,2.10
2023-05-10T13:33:37.035Z,3.00
2023-05-10T13:34:39.255Z,3.00
2023-05-10T13:35:42.150Z,3.30
2023-05-10T13:36:44.624Z,3.18
2023-05-10T13:37:48.794Z,4.20
2023-05-10T13:38:51.680Z,3.90
2023-05-10T13:39:54.706Z,4.40
2023-05-10T13:40:57.172Z,3.90
2023-05-10T13:41:59.437Z,2.20
2023-05-10T13:43:01.724Z,2.30
2023-05-10T13:44:04.450Z,2.70
2023-05-10T13:45:07.199Z,2.00
2023-05-10T13:46:09.856Z,0.50
2023-05-10T13:47:12.144Z,1.30
2023-05-10T13:48:14.370Z,2.20
2023-05-10T13:49:16.590Z,2.00
2023-05-10T13:50:19.756Z,2.20
2023-05-10T13:51:22.123Z,2.55
2023-05-10T13:52:24.971Z,1.20
2023-05-10T13:53:27.118Z,3.18
2023-05-10T13:54:29.783Z,2.50
2023-05-10T13:55:31.955Z,3.40
2023-05-10T13:56:34.204Z,4.30
2023-05-10T13:57:36.421Z,2.20
2023-05-10T13:58:38.762Z,5.40
2023-05-10T13:59:40.884Z,13.70
2023-05-10T14:00:43.644Z,18.00
2023-05-10T14:01:46.374Z,15.18
2023-05-10T14:02:48.909Z,5.36
2023-05-10T14:03:51.276Z,3.50
2023-05-10T14:04:53.643Z,4.70
2023-05-10T14:05:56.410Z,5.50
2023-05-10T14:06:59.256Z,9.18
2023-05-10T14:08:01.472Z,15.00
2023-05-10T14:09:03.942Z,16.80
2023-05-10T14:10:09.284Z,9.80
2023-05-10T14:11:12.907Z,6.10
2023-05-10T14:12:17.581Z,4.30
2023-05-10T14:13:22.914Z,2.80
2023-05-10T14:14:30.950Z,2.80
2023-05-10T14:15:37.859Z,2.40
2023-05-10T14:16:45.247Z,4.80
2023-05-10T14:17:50.833Z,8.60
2023-05-10T14:18:59.473Z,5.60
2023-05-10T14:20:04.481Z,6.30
2023-05-10T14:21:09.206Z,18.10
2023-05-10T14:22:13.850Z,33.60
2023-05-10T14:23:18.217Z,44.30
2023-05-10T14:24:21.771Z,45.20
2023-05-10T14:25:29.891Z,23.40
2023-05-10T14:26:37.204Z,15.20
2023-05-10T14:27:41.717Z,7.10
2023-05-10T14:28:45.382Z,3.20
2023-05-10T14:29:50.260Z,4.80
2023-05-10T14:30:54.827Z,30.40
2023-05-10T14:31:57.504Z,29.20
2023-05-10T14:33:06.869Z,38.50
2023-05-10T14:34:11.533Z,32.70
2023-05-10T14:35:16.153Z,59.80
2023-05-10T14:36:20.106Z,68.60
2023-05-10T14:37:26.391Z,63.60
2023-05-10T14:38:29.695Z,59.40
2023-05-10T14:39:34.048Z,47.40
2023-05-10T14:40:37.435Z,37.30
2023-05-10T14:41:41.254Z,18.30
2023-05-10T14:42:46.225Z,7.80